VSP109 SBGR-SBGO
Flight info
| Callsign | VSP109 |
|---|---|
| Flight time | 1h 22m |
| Altitude | 33000 |
| Route | GERKA DCT CORVO |
| Aircraft | B738/M-SDE2E3FGHIRWXY/LB1 |
Departure
| Time | 2026-04-25 00:10 |
|---|---|
| Airport | São Paulo/Guarulhos–Governor André Franco Montoro International Airport (SBGR) |
Arrival
| Time | 2026-04-25 01:32 |
|---|---|
| Airport | Santa Genoveva International Airport (SBGO) |
| Time | Latitude | Longitude | Altitude | Speed | Heading |
|---|---|---|---|---|---|
| 2026-04-24 23:34 | -23.42753 | -46.47450 | 2442 ft | 0 kts | 72° |
| 2026-04-24 23:42 | -23.43951 | -46.48044 | 2482 ft | 0 kts | 290° |
| 2026-04-24 23:46 | -23.42752 | -46.47449 | 2442 ft | 0 kts | 74° |
| 2026-04-24 23:46 | -23.42678 | -46.47474 | 2441 ft | 0 kts | 74° |
| 2026-04-24 23:58 | -23.42679 | -46.47477 | 2441 ft | 2 kts | 74° |
| 2026-04-24 23:58 | -23.42684 | -46.47492 | 2441 ft | 2 kts | 71° |
| 2026-04-24 23:58 | -23.42688 | -46.47507 | 2441 ft | 2 kts | 72° |
| 2026-04-24 23:58 | -23.42693 | -46.47522 | 2442 ft | 2 kts | 72° |
| 2026-04-24 23:59 | -23.42697 | -46.47538 | 2442 ft | 2 kts | 72° |
| 2026-04-24 23:59 | -23.42702 | -46.47554 | 2442 ft | 2 kts | 72° |
| 2026-04-24 23:59 | -23.42706 | -46.47569 | 2443 ft | 2 kts | 72° |
| 2026-04-24 23:59 | -23.42709 | -46.47580 | 2443 ft | 1 kts | 102° |
| 2026-04-25 00:00 | -23.42705 | -46.47588 | 2443 ft | 0 kts | 152° |
| 2026-04-25 00:00 | -23.42699 | -46.47590 | 2443 ft | 1 kts | 157° |
| 2026-04-25 00:00 | -23.42698 | -46.47591 | 2443 ft | 0 kts | 156° |
| 2026-04-25 00:03 | -23.42700 | -46.47590 | 2443 ft | 0 kts | 156° |
| 2026-04-25 00:03 | -23.42710 | -46.47585 | 2443 ft | 4 kts | 156° |
| 2026-04-25 00:03 | -23.42749 | -46.47567 | 2443 ft | 8 kts | 158° |
| 2026-04-25 00:03 | -23.42804 | -46.47545 | 2444 ft | 9 kts | 159° |
| 2026-04-25 00:04 | -23.42858 | -46.47526 | 2444 ft | 7 kts | 163° |
| 2026-04-25 00:04 | -23.42904 | -46.47512 | 2445 ft | 4 kts | 181° |
| 2026-04-25 00:04 | -23.42930 | -46.47525 | 2446 ft | 4 kts | 225° |
| 2026-04-25 00:04 | -23.42954 | -46.47574 | 2446 ft | 8 kts | 248° |
| 2026-04-25 00:05 | -23.42971 | -46.47635 | 2447 ft | 8 kts | 254° |
| 2026-04-25 00:05 | -23.42989 | -46.47697 | 2447 ft | 8 kts | 253° |
| 2026-04-25 00:05 | -23.43007 | -46.47763 | 2447 ft | 9 kts | 252° |
| 2026-04-25 00:05 | -23.43029 | -46.47833 | 2447 ft | 10 kts | 252° |
| 2026-04-25 00:06 | -23.43049 | -46.47911 | 2447 ft | 11 kts | 255° |
| 2026-04-25 00:06 | -23.43072 | -46.47994 | 2447 ft | 12 kts | 252° |
| 2026-04-25 00:06 | -23.43094 | -46.48080 | 2447 ft | 11 kts | 256° |
| 2026-04-25 00:06 | -23.43117 | -46.48166 | 2447 ft | 12 kts | 252° |
| 2026-04-25 00:07 | -23.43142 | -46.48254 | 2447 ft | 11 kts | 253° |
| 2026-04-25 00:07 | -23.43160 | -46.48325 | 2447 ft | 8 kts | 255° |
| 2026-04-25 00:07 | -23.43178 | -46.48391 | 2446 ft | 7 kts | 248° |
| 2026-04-25 00:07 | -23.43197 | -46.48400 | 2446 ft | 3 kts | 139° |
| 2026-04-25 00:08 | -23.43242 | -46.48376 | 2448 ft | 13 kts | 191° |
| 2026-04-25 00:08 | -23.43324 | -46.48389 | 2449 ft | 8 kts | 170° |
| 2026-04-25 00:08 | -23.43375 | -46.48375 | 2450 ft | 6 kts | 151° |
| 2026-04-25 00:08 | -23.43399 | -46.48350 | 2451 ft | 6 kts | 126° |
| 2026-04-25 00:09 | -23.43416 | -46.48300 | 2453 ft | 5 kts | 87° |
| 2026-04-25 00:09 | -23.43402 | -46.48242 | 2453 ft | 5 kts | 83° |
| 2026-04-25 00:09 | -23.43386 | -46.48180 | 2452 ft | 22 kts | 74° |
| 2026-04-25 00:09 | -23.43251 | -46.47662 | 2454 ft | 123 kts | 73° |
| 2026-04-25 00:10 | -23.42935 | -46.46553 | 2538 ft | 177 kts | 74° |
| 2026-04-25 00:10 | -23.42556 | -46.45141 | 2882 ft | 218 kts | 77° |
| 2026-04-25 00:10 | -23.42159 | -46.43451 | 3374 ft | 244 kts | 77° |
| 2026-04-25 00:10 | -23.41546 | -46.41715 | 3861 ft | 254 kts | 54° |
| 2026-04-25 00:11 | -23.40161 | -46.40573 | 4367 ft | 263 kts | 17° |
| 2026-04-25 00:11 | -23.38951 | -46.40353 | 4725 ft | 272 kts | 1° |
| 2026-04-25 00:11 | -23.36527 | -46.39640 | 5379 ft | 282 kts | 35° |
| 2026-04-25 00:11 | -23.35168 | -46.38085 | 5902 ft | 284 kts | 53° |
| 2026-04-25 00:12 | -23.34006 | -46.36386 | 6394 ft | 286 kts | 51° |
| 2026-04-25 00:12 | -23.32731 | -46.34740 | 6891 ft | 288 kts | 47° |
| 2026-04-25 00:12 | -23.31368 | -46.33151 | 7387 ft | 289 kts | 45° |
| 2026-04-25 00:12 | -23.29967 | -46.31574 | 7886 ft | 290 kts | 44° |
| 2026-04-25 00:13 | -23.28565 | -46.30013 | 8382 ft | 292 kts | 44° |
| 2026-04-25 00:13 | -23.27138 | -46.28428 | 8884 ft | 293 kts | 44° |
| 2026-04-25 00:13 | -23.25708 | -46.26841 | 9386 ft | 294 kts | 43° |
| 2026-04-25 00:13 | -23.24288 | -46.25266 | 9883 ft | 295 kts | 43° |
| 2026-04-25 00:14 | -23.22843 | -46.23663 | 10387 ft | 296 kts | 43° |
| 2026-04-25 00:14 | -23.21411 | -46.22076 | 10885 ft | 297 kts | 43° |
| 2026-04-25 00:14 | -23.19958 | -46.20466 | 11389 ft | 298 kts | 43° |
| 2026-04-25 00:14 | -23.18509 | -46.18860 | 11890 ft | 298 kts | 43° |
| 2026-04-25 00:15 | -23.17068 | -46.17264 | 12387 ft | 300 kts | 43° |
| 2026-04-25 00:15 | -23.15556 | -46.15677 | 12887 ft | 301 kts | 33° |
| 2026-04-25 00:15 | -23.13680 | -46.14847 | 13355 ft | 298 kts | 5° |
| 2026-04-25 00:15 | -23.11562 | -46.15179 | 13753 ft | 320 kts | 336° |
| 2026-04-25 00:16 | -23.09728 | -46.16626 | 13985 ft | 347 kts | 313° |
| 2026-04-25 00:16 | -23.08210 | -46.18756 | 13993 ft | 359 kts | 305° |
| 2026-04-25 00:16 | -23.06824 | -46.21025 | 13989 ft | 360 kts | 304° |
| 2026-04-25 00:16 | -23.05473 | -46.23288 | 13991 ft | 359 kts | 303° |
| 2026-04-25 00:17 | -23.04115 | -46.25566 | 13992 ft | 359 kts | 303° |
| 2026-04-25 00:17 | -23.02769 | -46.27825 | 13992 ft | 359 kts | 303° |
| 2026-04-25 00:17 | -23.01399 | -46.30124 | 13993 ft | 360 kts | 303° |
| 2026-04-25 00:17 | -23.00052 | -46.32384 | 13992 ft | 361 kts | 302° |
| 2026-04-25 00:18 | -22.98673 | -46.34698 | 14078 ft | 363 kts | 302° |
| 2026-04-25 00:18 | -22.97305 | -46.36995 | 14301 ft | 362 kts | 302° |
| 2026-04-25 00:18 | -22.95937 | -46.39290 | 14929 ft | 371 kts | 301° |
| 2026-04-25 00:18 | -22.94515 | -46.41676 | 15565 ft | 378 kts | 301° |
| 2026-04-25 00:19 | -22.93093 | -46.44064 | 16187 ft | 383 kts | 301° |
| 2026-04-25 00:19 | -22.91616 | -46.46542 | 16822 ft | 393 kts | 301° |
| 2026-04-25 00:19 | -22.90136 | -46.49027 | 17441 ft | 401 kts | 301° |
| 2026-04-25 00:19 | -22.88622 | -46.51566 | 18062 ft | 405 kts | 301° |
| 2026-04-25 00:20 | -22.87072 | -46.54166 | 18695 ft | 409 kts | 301° |
| 2026-04-25 00:20 | -22.85537 | -46.56740 | 19315 ft | 412 kts | 301° |
| 2026-04-25 00:20 | -22.83967 | -46.59373 | 19947 ft | 415 kts | 301° |
| 2026-04-25 00:20 | -22.82406 | -46.61990 | 20570 ft | 418 kts | 301° |
| 2026-04-25 00:21 | -22.80833 | -46.64627 | 21194 ft | 421 kts | 301° |
| 2026-04-25 00:21 | -22.79248 | -46.67284 | 21817 ft | 424 kts | 301° |
| 2026-04-25 00:21 | -22.77638 | -46.69983 | 22446 ft | 428 kts | 301° |
| 2026-04-25 00:21 | -22.76026 | -46.72685 | 23069 ft | 431 kts | 301° |
| 2026-04-25 00:22 | -22.74397 | -46.75414 | 23695 ft | 434 kts | 301° |
| 2026-04-25 00:22 | -22.72741 | -46.78188 | 24327 ft | 437 kts | 301° |
| 2026-04-25 00:22 | -22.71103 | -46.80933 | 24948 ft | 440 kts | 301° |
| 2026-04-25 00:22 | -22.69445 | -46.83711 | 25572 ft | 443 kts | 301° |
| 2026-04-25 00:23 | -22.67758 | -46.86536 | 26203 ft | 446 kts | 300° |
| 2026-04-25 00:23 | -22.66078 | -46.89351 | 26827 ft | 448 kts | 300° |
| 2026-04-25 00:23 | -22.64415 | -46.92141 | 27445 ft | 448 kts | 304° |
| 2026-04-25 00:23 | -22.62813 | -46.95008 | 28073 ft | 436 kts | 301° |
| 2026-04-25 00:24 | -22.61330 | -46.97835 | 28697 ft | 428 kts | 301° |
| 2026-04-25 00:24 | -22.59825 | -47.00559 | 29318 ft | 424 kts | 302° |
| 2026-04-25 00:24 | -22.58214 | -47.03226 | 29947 ft | 421 kts | 306° |
| 2026-04-25 00:24 | -22.56285 | -47.05517 | 30561 ft | 419 kts | 318° |
| 2026-04-25 00:25 | -22.53861 | -47.07272 | 31192 ft | 421 kts | 331° |
| 2026-04-25 00:25 | -22.51120 | -47.08492 | 31554 ft | 430 kts | 338° |
| 2026-04-25 00:25 | -22.48276 | -47.09448 | 31878 ft | 437 kts | 340° |
| 2026-04-25 00:25 | -22.45331 | -47.10338 | 32418 ft | 438 kts | 341° |
| 2026-04-25 00:26 | -22.42407 | -47.11194 | 32953 ft | 439 kts | 341° |
| 2026-04-25 00:26 | -22.39445 | -47.12051 | 33107 ft | 445 kts | 341° |
| 2026-04-25 00:26 | -22.33457 | -47.13764 | 33100 ft | 447 kts | 342° |
| 2026-04-25 00:27 | -22.27447 | -47.15469 | 33102 ft | 445 kts | 342° |
| 2026-04-25 00:27 | -22.21478 | -47.17157 | 33101 ft | 446 kts | 342° |
| 2026-04-25 00:28 | -22.15477 | -47.18849 | 33101 ft | 446 kts | 342° |
| 2026-04-25 00:28 | -22.09492 | -47.20533 | 33101 ft | 446 kts | 342° |
| 2026-04-25 00:29 | -22.03509 | -47.22214 | 33096 ft | 446 kts | 342° |
| 2026-04-25 00:29 | -21.97527 | -47.23892 | 33086 ft | 446 kts | 342° |
| 2026-04-25 00:30 | -21.91539 | -47.25571 | 33076 ft | 446 kts | 342° |
| 2026-04-25 00:30 | -21.85578 | -47.27240 | 33074 ft | 446 kts | 342° |
| 2026-04-25 00:31 | -21.79564 | -47.28923 | 33074 ft | 446 kts | 342° |
| 2026-04-25 00:31 | -21.73596 | -47.30591 | 33074 ft | 446 kts | 342° |
| 2026-04-25 00:32 | -21.67595 | -47.32267 | 33074 ft | 446 kts | 342° |
| 2026-04-25 00:32 | -21.61602 | -47.33939 | 33074 ft | 446 kts | 342° |
| 2026-04-25 00:33 | -21.55613 | -47.35609 | 33074 ft | 446 kts | 342° |
| 2026-04-25 00:33 | -21.49625 | -47.37277 | 33074 ft | 446 kts | 342° |
| 2026-04-25 00:34 | -21.43651 | -47.38939 | 33074 ft | 446 kts | 342° |
| 2026-04-25 00:34 | -21.37644 | -47.40610 | 33074 ft | 446 kts | 342° |
| 2026-04-25 00:35 | -21.31686 | -47.42265 | 33074 ft | 446 kts | 342° |
| 2026-04-25 00:35 | -21.25680 | -47.43933 | 33074 ft | 446 kts | 342° |
| 2026-04-25 00:36 | -21.19681 | -47.45597 | 33074 ft | 446 kts | 342° |
| 2026-04-25 00:36 | -21.13715 | -47.47250 | 33074 ft | 446 kts | 342° |
| 2026-04-25 00:37 | -21.07736 | -47.48906 | 33074 ft | 448 kts | 342° |
| 2026-04-25 00:37 | -21.01685 | -47.50581 | 33074 ft | 452 kts | 342° |
| 2026-04-25 00:38 | -20.95568 | -47.52269 | 33074 ft | 460 kts | 342° |
| 2026-04-25 00:38 | -20.89335 | -47.53991 | 33073 ft | 462 kts | 342° |
| 2026-04-25 00:39 | -20.83145 | -47.55700 | 33074 ft | 460 kts | 342° |
| 2026-04-25 00:39 | -20.76974 | -47.57403 | 33074 ft | 461 kts | 342° |
| 2026-04-25 00:40 | -20.70789 | -47.59107 | 33074 ft | 460 kts | 342° |
| 2026-04-25 00:40 | -20.64595 | -47.60813 | 33074 ft | 461 kts | 342° |
| 2026-04-25 00:41 | -20.58405 | -47.62515 | 33074 ft | 460 kts | 342° |
| 2026-04-25 00:41 | -20.52236 | -47.64211 | 33074 ft | 460 kts | 342° |
| 2026-04-25 00:42 | -20.46028 | -47.65915 | 33076 ft | 460 kts | 342° |
| 2026-04-25 00:42 | -20.39837 | -47.67614 | 33096 ft | 460 kts | 342° |
| 2026-04-25 00:43 | -20.33647 | -47.69311 | 33117 ft | 460 kts | 342° |
| 2026-04-25 00:43 | -20.27480 | -47.71000 | 33128 ft | 460 kts | 342° |
| 2026-04-25 00:44 | -20.21290 | -47.72694 | 33128 ft | 460 kts | 342° |
| 2026-04-25 00:44 | -20.15101 | -47.74386 | 33128 ft | 461 kts | 342° |
| 2026-04-25 00:45 | -20.08887 | -47.76084 | 33128 ft | 460 kts | 342° |
| 2026-04-25 00:45 | -20.02703 | -47.77772 | 33128 ft | 460 kts | 342° |
| 2026-04-25 00:46 | -19.96534 | -47.79455 | 33128 ft | 460 kts | 342° |
| 2026-04-25 00:47 | -19.87255 | -47.81984 | 33128 ft | 460 kts | 342° |
| 2026-04-25 00:47 | -19.81052 | -47.83672 | 33128 ft | 460 kts | 342° |
| 2026-04-25 00:48 | -19.74883 | -47.85350 | 33128 ft | 461 kts | 342° |
| 2026-04-25 00:48 | -19.68691 | -47.87033 | 33128 ft | 460 kts | 342° |
| 2026-04-25 00:49 | -19.62480 | -47.88720 | 33128 ft | 460 kts | 342° |
| 2026-04-25 00:49 | -19.56266 | -47.90406 | 33128 ft | 461 kts | 342° |
| 2026-04-25 00:50 | -19.50113 | -47.92074 | 33128 ft | 460 kts | 342° |
| 2026-04-25 00:50 | -19.43922 | -47.93751 | 33128 ft | 460 kts | 342° |
| 2026-04-25 00:51 | -19.37714 | -47.95432 | 33128 ft | 460 kts | 342° |
| 2026-04-25 00:51 | -19.31548 | -47.97100 | 33137 ft | 460 kts | 342° |
| 2026-04-25 00:52 | -19.25335 | -47.98779 | 33159 ft | 460 kts | 342° |
| 2026-04-25 00:52 | -19.19132 | -48.00454 | 33179 ft | 460 kts | 342° |
| 2026-04-25 00:53 | -19.12960 | -48.02120 | 33182 ft | 460 kts | 342° |
| 2026-04-25 00:53 | -19.06775 | -48.03788 | 33182 ft | 460 kts | 342° |
| 2026-04-25 00:54 | -19.00575 | -48.05459 | 33182 ft | 461 kts | 342° |
| 2026-04-25 00:54 | -18.94347 | -48.07136 | 33182 ft | 466 kts | 343° |
| 2026-04-25 00:55 | -18.88237 | -48.09100 | 33181 ft | 460 kts | 338° |
| 2026-04-25 00:55 | -18.82175 | -48.11355 | 33182 ft | 463 kts | 338° |
| 2026-04-25 00:56 | -18.76111 | -48.13639 | 33182 ft | 462 kts | 338° |
| 2026-04-25 00:56 | -18.70085 | -48.15921 | 33182 ft | 462 kts | 338° |
| 2026-04-25 00:57 | -18.64022 | -48.18223 | 33182 ft | 462 kts | 338° |
| 2026-04-25 00:57 | -18.58018 | -48.20506 | 33182 ft | 462 kts | 338° |
| 2026-04-25 00:58 | -18.51981 | -48.22802 | 33182 ft | 462 kts | 338° |
| 2026-04-25 00:58 | -18.45920 | -48.25108 | 33182 ft | 462 kts | 338° |
| 2026-04-25 00:59 | -18.39896 | -48.27398 | 33182 ft | 462 kts | 338° |
| 2026-04-25 00:59 | -18.33865 | -48.29689 | 33182 ft | 462 kts | 338° |
| 2026-04-25 01:00 | -18.27845 | -48.31976 | 33182 ft | 462 kts | 338° |
| 2026-04-25 01:00 | -18.21805 | -48.34267 | 33182 ft | 462 kts | 338° |
| 2026-04-25 01:01 | -18.15747 | -48.36560 | 33182 ft | 463 kts | 338° |
| 2026-04-25 01:01 | -18.09731 | -48.38837 | 33182 ft | 463 kts | 338° |
| 2026-04-25 01:02 | -18.03662 | -48.41136 | 33182 ft | 462 kts | 338° |
| 2026-04-25 01:02 | -17.97671 | -48.43404 | 33182 ft | 462 kts | 338° |
| 2026-04-25 01:03 | -17.91611 | -48.45697 | 33182 ft | 462 kts | 338° |
| 2026-04-25 01:03 | -17.88613 | -48.46832 | 33034 ft | 465 kts | 338° |
| 2026-04-25 01:03 | -17.85576 | -48.47980 | 32421 ft | 458 kts | 338° |
| 2026-04-25 01:03 | -17.82629 | -48.49093 | 31437 ft | 455 kts | 338° |
| 2026-04-25 01:04 | -17.79694 | -48.50201 | 30631 ft | 448 kts | 338° |
| 2026-04-25 01:04 | -17.76831 | -48.51376 | 30007 ft | 438 kts | 334° |
| 2026-04-25 01:04 | -17.74133 | -48.52779 | 29682 ft | 432 kts | 329° |
| 2026-04-25 01:04 | -17.71561 | -48.54404 | 29440 ft | 436 kts | 326° |
| 2026-04-25 01:05 | -17.69045 | -48.56172 | 29188 ft | 436 kts | 324° |
| 2026-04-25 01:05 | -17.66570 | -48.58004 | 28933 ft | 432 kts | 323° |
| 2026-04-25 01:05 | -17.64182 | -48.59827 | 28682 ft | 429 kts | 322° |
| 2026-04-25 01:05 | -17.61793 | -48.61690 | 28431 ft | 427 kts | 322° |
| 2026-04-25 01:06 | -17.59449 | -48.63547 | 28182 ft | 425 kts | 321° |
| 2026-04-25 01:06 | -17.57081 | -48.65442 | 27928 ft | 424 kts | 321° |
| 2026-04-25 01:06 | -17.54779 | -48.67300 | 27681 ft | 423 kts | 321° |
| 2026-04-25 01:06 | -17.52462 | -48.69191 | 27430 ft | 421 kts | 321° |
| 2026-04-25 01:07 | -17.50162 | -48.71079 | 27178 ft | 419 kts | 321° |
| 2026-04-25 01:07 | -17.47899 | -48.72943 | 26929 ft | 417 kts | 321° |
| 2026-04-25 01:07 | -17.45640 | -48.74811 | 26680 ft | 415 kts | 321° |
| 2026-04-25 01:07 | -17.44357 | -48.75874 | 26537 ft | 413 kts | 321° |
| 2026-04-25 01:08 | -17.42092 | -48.77752 | 26265 ft | 399 kts | 321° |
| 2026-04-25 01:08 | -17.39977 | -48.79507 | 25916 ft | 386 kts | 321° |
| 2026-04-25 01:08 | -17.37839 | -48.81284 | 25405 ft | 397 kts | 321° |
| 2026-04-25 01:08 | -17.35652 | -48.83103 | 24814 ft | 404 kts | 321° |
| 2026-04-25 01:09 | -17.33496 | -48.84896 | 24220 ft | 393 kts | 321° |
| 2026-04-25 01:09 | -17.31408 | -48.86633 | 23659 ft | 384 kts | 322° |
| 2026-04-25 01:09 | -17.29346 | -48.88348 | 23102 ft | 375 kts | 322° |
| 2026-04-25 01:09 | -17.27312 | -48.90039 | 22559 ft | 382 kts | 322° |
| 2026-04-25 01:10 | -17.25195 | -48.91800 | 21982 ft | 389 kts | 322° |
| 2026-04-25 01:10 | -17.23128 | -48.93519 | 21400 ft | 380 kts | 322° |
| 2026-04-25 01:10 | -17.21068 | -48.95232 | 20834 ft | 371 kts | 322° |
| 2026-04-25 01:10 | -17.19091 | -48.96875 | 20290 ft | 363 kts | 322° |
| 2026-04-25 01:11 | -17.17106 | -48.98524 | 19751 ft | 373 kts | 323° |
| 2026-04-25 01:11 | -17.15059 | -49.00223 | 19173 ft | 376 kts | 323° |
| 2026-04-25 01:11 | -17.13038 | -49.01902 | 18596 ft | 369 kts | 323° |
| 2026-04-25 01:11 | -17.11069 | -49.03534 | 18048 ft | 361 kts | 323° |
| 2026-04-25 01:12 | -17.09121 | -49.05150 | 17499 ft | 355 kts | 323° |
| 2026-04-25 01:12 | -17.07209 | -49.06735 | 17032 ft | 351 kts | 323° |
| 2026-04-25 01:12 | -17.05231 | -49.08366 | 16655 ft | 375 kts | 323° |
| 2026-04-25 01:12 | -17.03140 | -49.10067 | 16201 ft | 381 kts | 323° |
| 2026-04-25 01:13 | -17.01103 | -49.11736 | 15633 ft | 373 kts | 323° |
| 2026-04-25 01:13 | -16.99070 | -49.13420 | 15056 ft | 366 kts | 322° |
| 2026-04-25 01:13 | -16.97272 | -49.14922 | 14539 ft | 360 kts | 322° |
| 2026-04-25 01:13 | -16.95354 | -49.16530 | 13986 ft | 354 kts | 322° |
| 2026-04-25 01:14 | -16.93446 | -49.18124 | 13432 ft | 348 kts | 322° |
| 2026-04-25 01:14 | -16.91585 | -49.19675 | 12891 ft | 342 kts | 322° |
| 2026-04-25 01:14 | -16.89730 | -49.21213 | 12350 ft | 337 kts | 323° |
| 2026-04-25 01:14 | -16.87913 | -49.22716 | 11822 ft | 333 kts | 323° |
| 2026-04-25 01:15 | -16.86093 | -49.24221 | 11351 ft | 332 kts | 323° |
| 2026-04-25 01:15 | -16.84316 | -49.25690 | 11152 ft | 317 kts | 323° |
| 2026-04-25 01:15 | -16.82620 | -49.27092 | 11007 ft | 303 kts | 323° |
| 2026-04-25 01:15 | -16.81007 | -49.28424 | 10805 ft | 294 kts | 323° |
| 2026-04-25 01:16 | -16.79419 | -49.29735 | 10587 ft | 286 kts | 323° |
| 2026-04-25 01:16 | -16.77881 | -49.31004 | 10373 ft | 280 kts | 323° |
| 2026-04-25 01:16 | -16.76378 | -49.32245 | 10165 ft | 274 kts | 323° |
| 2026-04-25 01:16 | -16.74898 | -49.33466 | 9884 ft | 272 kts | 323° |
| 2026-04-25 01:17 | -16.73410 | -49.34694 | 9522 ft | 273 kts | 323° |
| 2026-04-25 01:17 | -16.72415 | -49.35514 | 9295 ft | 272 kts | 323° |
| 2026-04-25 01:17 | -16.70447 | -49.37138 | 8847 ft | 272 kts | 323° |
| 2026-04-25 01:17 | -16.68972 | -49.38356 | 8513 ft | 272 kts | 322° |
| 2026-04-25 01:18 | -16.67493 | -49.39576 | 8178 ft | 271 kts | 322° |
| 2026-04-25 01:18 | -16.66008 | -49.40789 | 7840 ft | 270 kts | 326° |
| 2026-04-25 01:18 | -16.64366 | -49.41698 | 7456 ft | 270 kts | 342° |
| 2026-04-25 01:18 | -16.62523 | -49.42062 | 7121 ft | 267 kts | 360° |
| 2026-04-25 01:19 | -16.60705 | -49.41835 | 6879 ft | 260 kts | 18° |
| 2026-04-25 01:19 | -16.59098 | -49.41141 | 6809 ft | 248 kts | 29° |
| 2026-04-25 01:19 | -16.57668 | -49.40163 | 6592 ft | 243 kts | 44° |
| 2026-04-25 01:19 | -16.56623 | -49.38810 | 6265 ft | 244 kts | 62° |
| 2026-04-25 01:20 | -16.56053 | -49.37147 | 5914 ft | 245 kts | 81° |
| 2026-04-25 01:20 | -16.56042 | -49.35372 | 5431 ft | 251 kts | 101° |
| 2026-04-25 01:20 | -16.56617 | -49.33632 | 4953 ft | 256 kts | 116° |
| 2026-04-25 01:20 | -16.57504 | -49.32026 | 4553 ft | 257 kts | 122° |
| 2026-04-25 01:21 | -16.58444 | -49.30470 | 4261 ft | 254 kts | 122° |
| 2026-04-25 01:21 | -16.59371 | -49.28892 | 3907 ft | 253 kts | 121° |
| 2026-04-25 01:21 | -16.60260 | -49.27333 | 3553 ft | 253 kts | 121° |
| 2026-04-25 01:21 | -16.61138 | -49.25774 | 3322 ft | 244 kts | 120° |
| 2026-04-25 01:22 | -16.61957 | -49.24315 | 3264 ft | 219 kts | 120° |
| 2026-04-25 01:22 | -16.62678 | -49.23027 | 3269 ft | 191 kts | 120° |
| 2026-04-25 01:22 | -16.63302 | -49.21919 | 3337 ft | 158 kts | 121° |
| 2026-04-25 01:22 | -16.63835 | -49.20982 | 3270 ft | 148 kts | 121° |
| 2026-04-25 01:23 | -16.64367 | -49.20049 | 3299 ft | 153 kts | 121° |
| 2026-04-25 01:23 | -16.64883 | -49.19062 | 3269 ft | 154 kts | 112° |
| 2026-04-25 01:23 | -16.65070 | -49.17977 | 3277 ft | 154 kts | 85° |
| 2026-04-25 01:23 | -16.64625 | -49.16966 | 3302 ft | 158 kts | 51° |
| 2026-04-25 01:24 | -16.63788 | -49.16206 | 3289 ft | 160 kts | 39° |
| 2026-04-25 01:24 | -16.62892 | -49.15522 | 3278 ft | 159 kts | 38° |
| 2026-04-25 01:24 | -16.61922 | -49.14961 | 3285 ft | 162 kts | 16° |
| 2026-04-25 01:24 | -16.60811 | -49.15027 | 3285 ft | 165 kts | 341° |
| 2026-04-25 01:25 | -16.59910 | -49.15751 | 3296 ft | 166 kts | 307° |
| 2026-04-25 01:25 | -16.59277 | -49.16764 | 3296 ft | 167 kts | 303° |
| 2026-04-25 01:25 | -16.58650 | -49.17778 | 3249 ft | 166 kts | 303° |
| 2026-04-25 01:25 | -16.58032 | -49.18773 | 3244 ft | 164 kts | 303° |
| 2026-04-25 01:26 | -16.57407 | -49.19778 | 3321 ft | 165 kts | 303° |
| 2026-04-25 01:26 | -16.56772 | -49.20801 | 3292 ft | 167 kts | 303° |
| 2026-04-25 01:26 | -16.56146 | -49.21808 | 3305 ft | 165 kts | 303° |
| 2026-04-25 01:26 | -16.55520 | -49.22816 | 3288 ft | 166 kts | 303° |
| 2026-04-25 01:27 | -16.54890 | -49.23829 | 3291 ft | 166 kts | 303° |
| 2026-04-25 01:27 | -16.54263 | -49.24839 | 3291 ft | 166 kts | 303° |
| 2026-04-25 01:27 | -16.53643 | -49.25834 | 3290 ft | 166 kts | 303° |
| 2026-04-25 01:28 | -16.52801 | -49.28010 | 3284 ft | 164 kts | 262° |
| 2026-04-25 01:28 | -16.53258 | -49.29081 | 3302 ft | 161 kts | 227° |
| 2026-04-25 01:28 | -16.54071 | -49.29868 | 3291 ft | 161 kts | 217° |
| 2026-04-25 01:28 | -16.54947 | -49.30594 | 3280 ft | 160 kts | 216° |
| 2026-04-25 01:29 | -16.55822 | -49.31310 | 3291 ft | 160 kts | 216° |
| 2026-04-25 01:29 | -16.56776 | -49.31882 | 3273 ft | 158 kts | 192° |
| 2026-04-25 01:29 | -16.57834 | -49.31796 | 3293 ft | 154 kts | 155° |
| 2026-04-25 01:29 | -16.58639 | -49.31084 | 3303 ft | 154 kts | 126° |
| 2026-04-25 01:30 | -16.59158 | -49.30103 | 3284 ft | 154 kts | 114° |
| 2026-04-25 01:30 | -16.59565 | -49.29066 | 3256 ft | 154 kts | 112° |
| 2026-04-25 01:30 | -16.59930 | -49.28022 | 3214 ft | 154 kts | 111° |
| 2026-04-25 01:30 | -16.60350 | -49.27002 | 3161 ft | 154 kts | 118° |
| 2026-04-25 01:31 | -16.60885 | -49.26033 | 3064 ft | 153 kts | 123° |
| 2026-04-25 01:31 | -16.61468 | -49.25109 | 3077 ft | 152 kts | 123° |
| 2026-04-25 01:31 | -16.62044 | -49.24162 | 2964 ft | 156 kts | 121° |
| 2026-04-25 01:31 | -16.62593 | -49.23189 | 2557 ft | 155 kts | 120° |
| 2026-04-25 01:32 | -16.63099 | -49.22278 | 2460 ft | 137 kts | 122° |
| 2026-04-25 01:32 | -16.63546 | -49.21498 | 2460 ft | 100 kts | 119° |
| 2026-04-25 01:32 | -16.63710 | -49.21197 | 2460 ft | 15 kts | 118° |
| 2026-04-25 01:32 | -16.63737 | -49.21112 | 2459 ft | 8 kts | 72° |
| 2026-04-25 01:33 | -16.63701 | -49.21074 | 2460 ft | 6 kts | 32° |
| 2026-04-25 01:33 | -16.63664 | -49.21052 | 2460 ft | 5 kts | 30° |
| 2026-04-25 01:33 | -16.63628 | -49.21040 | 2460 ft | 5 kts | 355° |
| 2026-04-25 01:33 | -16.63597 | -49.21058 | 2459 ft | 5 kts | 312° |
| 2026-04-25 01:34 | -16.63574 | -49.21092 | 2460 ft | 6 kts | 304° |
| 2026-04-25 01:34 | -16.63547 | -49.21137 | 2460 ft | 7 kts | 300° |
| 2026-04-25 01:34 | -16.63518 | -49.21192 | 2460 ft | 9 kts | 299° |
| 2026-04-25 01:34 | -16.63495 | -49.21252 | 2460 ft | 9 kts | 289° |
| 2026-04-25 01:35 | -16.63476 | -49.21319 | 2459 ft | 10 kts | 279° |
| 2026-04-25 01:35 | -16.63470 | -49.21398 | 2459 ft | 11 kts | 271° |
| 2026-04-25 01:35 | -16.63469 | -49.21478 | 2460 ft | 11 kts | 271° |
| 2026-04-25 01:35 | -16.63462 | -49.21565 | 2459 ft | 12 kts | 281° |
| 2026-04-25 01:36 | -16.63438 | -49.21657 | 2459 ft | 13 kts | 289° |
| 2026-04-25 01:36 | -16.63396 | -49.21749 | 2459 ft | 14 kts | 300° |
| 2026-04-25 01:36 | -16.63342 | -49.21846 | 2459 ft | 15 kts | 300° |
| 2026-04-25 01:36 | -16.63288 | -49.21940 | 2460 ft | 15 kts | 300° |
| 2026-04-25 01:37 | -16.63235 | -49.22036 | 2460 ft | 15 kts | 300° |
| 2026-04-25 01:37 | -16.63191 | -49.22116 | 2459 ft | 10 kts | 299° |
| 2026-04-25 01:37 | -16.63167 | -49.22184 | 2459 ft | 7 kts | 264° |
| 2026-04-25 01:37 | -16.63197 | -49.22223 | 2459 ft | 7 kts | 213° |
| 2026-04-25 01:38 | -16.63238 | -49.22249 | 2459 ft | 5 kts | 211° |
| 2026-04-25 01:38 | -16.63273 | -49.22270 | 2460 ft | 5 kts | 210° |
| 2026-04-25 01:38 | -16.63295 | -49.22289 | 2460 ft | 3 kts | 247° |
| 2026-04-25 01:38 | -16.63296 | -49.22311 | 2460 ft | 3 kts | 281° |
| 2026-04-25 01:39 | -16.63287 | -49.22335 | 2460 ft | 4 kts | 298° |
| 2026-04-25 01:39 | -16.63259 | -49.22385 | 2460 ft | 5 kts | 300° |
| 2026-04-25 01:39 | -16.63238 | -49.22423 | 2459 ft | 6 kts | 300° |
| 2026-04-25 01:39 | -16.63214 | -49.22465 | 2459 ft | 4 kts | 300° |
| 2026-04-25 01:40 | -16.63200 | -49.22491 | 2460 ft | 3 kts | 299° |
| 2026-04-25 01:40 | -16.63201 | -49.22512 | 2460 ft | 3 kts | 237° |
| 2026-04-25 01:40 | -16.63216 | -49.22527 | 2459 ft | 2 kts | 230° |
| 2026-04-25 01:40 | -16.63225 | -49.22545 | 2459 ft | 2 kts | 251° |
| 2026-04-25 01:41 | -16.63227 | -49.22554 | 2459 ft | 1 kts | 253° |
| 2026-04-25 01:41 | -16.63229 | -49.22559 | 2459 ft | 0 kts | 255° |